sensor_id;sensor_type;location;lat;lon;timestamp;temperature;humidity
14908;DHT22;7545;52.092;7.006;2023-01-29T00:00:36;2.70;99.90
14908;DHT22;7545;52.092;7.006;2023-01-29T00:03:01;2.60;99.90
14908;DHT22;7545;52.092;7.006;2023-01-29T00:05:27;2.60;99.90
14908;DHT22;7545;52.092;7.006;2023-01-29T00:07:53;2.60;99.90
14908;DHT22;7545;52.092;7.006;2023-01-29T00:10:19;2.60;99.90
14908;DHT22;7545;52.092;7.006;2023-01-29T00:12:45;2.60;99.90
14908;DHT22;7545;52.092;7.006;2023-01-29T00:15:10;2.60;99.90
14908;DHT22;7545;52.092;7.006;2023-01-29T00:17:36;2.60;99.90
14908;DHT22;7545;52.092;7.006;2023-01-29T00:20:02;2.60;99.90
14908;DHT22;7545;52.092;7.006;2023-01-29T00:22:29;2.60;99.90
14908;DHT22;7545;52.092;7.006;2023-01-29T00:24:55;2.70;99.90
14908;DHT22;7545;52.092;7.006;2023-01-29T00:27:20;2.70;99.90
14908;DHT22;7545;52.092;7.006;2023-01-29T00:29:46;2.60;99.90
14908;DHT22;7545;52.092;7.006;2023-01-29T00:32:31;2.60;99.90
14908;DHT22;7545;52.092;7.006;2023-01-29T00:34:57;2.60;99.90
14908;DHT22;7545;52.092;7.006;2023-01-29T00:37:22;2.60;99.90
14908;DHT22;7545;52.092;7.006;2023-01-29T00:39:48;2.60;99.90
14908;DHT22;7545;52.092;7.006;2023-01-29T00:42:14;2.60;99.90
14908;DHT22;7545;52.092;7.006;2023-01-29T00:44:57;2.60;99.90
14908;DHT22;7545;52.092;7.006;2023-01-29T00:47:23;2.60;99.90
14908;DHT22;7545;52.092;7.006;2023-01-29T00:49:55;2.60;99.90
14908;DHT22;7545;52.092;7.006;2023-01-29T00:52:21;2.60;99.90
14908;DHT22;7545;52.092;7.006;2023-01-29T00:54:54;2.60;99.90
14908;DHT22;7545;52.092;7.006;2023-01-29T00:57:21;2.60;99.90
14908;DHT22;7545;52.092;7.006;2023-01-29T00:59:47;2.70;99.90
14908;DHT22;7545;52.092;7.006;2023-01-29T01:02:13;2.60;99.90
14908;DHT22;7545;52.092;7.006;2023-01-29T01:04:57;2.70;99.90
14908;DHT22;7545;52.092;7.006;2023-01-29T01:07:23;2.70;99.90
14908;DHT22;7545;52.092;7.006;2023-01-29T01:09:49;2.70;99.90
14908;DHT22;7545;52.092;7.006;2023-01-29T01:12:33;2.70;99.90
14908;DHT22;7545;52.092;7.006;2023-01-29T01:14:58;2.70;99.90
14908;DHT22;7545;52.092;7.006;2023-01-29T01:17:24;2.70;99.90
14908;DHT22;7545;52.092;7.006;2023-01-29T01:19:50;2.60;99.90
14908;DHT22;7545;52.092;7.006;2023-01-29T01:22:15;2.70;99.90
14908;DHT22;7545;52.092;7.006;2023-01-29T01:24:41;2.70;99.90
14908;DHT22;7545;52.092;7.006;2023-01-29T01:27:07;2.60;99.90
14908;DHT22;7545;52.092;7.006;2023-01-29T01:29:32;2.60;99.90
14908;DHT22;7545;52.092;7.006;2023-01-29T01:31:58;2.60;99.90
14908;DHT22;7545;52.092;7.006;2023-01-29T01:34:24;2.70;99.90
14908;DHT22;7545;52.092;7.006;2023-01-29T01:36:52;2.70;99.90
14908;DHT22;7545;52.092;7.006;2023-01-29T01:39:17;2.70;99.90
14908;DHT22;7545;52.092;7.006;2023-01-29T01:41:44;2.70;99.90
14908;DHT22;7545;52.092;7.006;2023-01-29T01:47:14;2.60;99.90
14908;DHT22;7545;52.092;7.006;2023-01-29T01:49:42;2.60;99.90
14908;DHT22;7545;52.092;7.006;2023-01-29T01:52:09;2.70;99.90
14908;DHT22;7545;52.092;7.006;2023-01-29T01:54:35;2.70;99.90
14908;DHT22;7545;52.092;7.006;2023-01-29T01:57:05;2.70;99.90
14908;DHT22;7545;52.092;7.006;2023-01-29T01:59:42;2.70;99.90
14908;DHT22;7545;52.092;7.006;2023-01-29T02:02:11;2.70;99.90
14908;DHT22;7545;52.092;7.006;2023-01-29T02:04:55;2.70;99.90
14908;DHT22;7545;52.092;7.006;2023-01-29T02:07:44;2.70;99.90
14908;DHT22;7545;52.092;7.006;2023-01-29T02:10:31;2.70;99.90
14908;DHT22;7545;52.092;7.006;2023-01-29T02:13:03;2.70;99.90
14908;DHT22;7545;52.092;7.006;2023-01-29T02:15:28;2.70;99.90
14908;DHT22;7545;52.092;7.006;2023-01-29T02:17:54;2.70;99.90
14908;DHT22;7545;52.092;7.006;2023-01-29T02:20:24;2.70;99.90
14908;DHT22;7545;52.092;7.006;2023-01-29T02:36:50;2.70;99.90
14908;DHT22;7545;52.092;7.006;2023-01-29T02:40:06;2.60;99.90
14908;DHT22;7545;52.092;7.006;2023-01-29T02:42:14;2.70;99.90
14908;DHT22;7545;52.092;7.006;2023-01-29T02:47:22;2.60;99.90
14908;DHT22;7545;52.092;7.006;2023-01-29T02:50:12;2.60;99.90
14908;DHT22;7545;52.092;7.006;2023-01-29T02:55:39;2.60;99.90
14908;DHT22;7545;52.092;7.006;2023-01-29T02:58:35;2.60;99.90
14908;DHT22;7545;52.092;7.006;2023-01-29T03:01:18;2.60;99.90
14908;DHT22;7545;52.092;7.006;2023-01-29T03:03:50;2.60;99.90
14908;DHT22;7545;52.092;7.006;2023-01-29T03:06:24;2.50;99.90
14908;DHT22;7545;52.092;7.006;2023-01-29T03:08:59;2.50;99.90
14908;DHT22;7545;52.092;7.006;2023-01-29T03:11:39;2.60;99.90
14908;DHT22;7545;52.092;7.006;2023-01-29T03:14:21;2.60;99.90
14908;DHT22;7545;52.092;7.006;2023-01-29T03:16:52;2.60;99.90
14908;DHT22;7545;52.092;7.006;2023-01-29T03:19:23;2.60;99.90
14908;DHT22;7545;52.092;7.006;2023-01-29T03:21:54;2.60;99.90
14908;DHT22;7545;52.092;7.006;2023-01-29T03:27:35;2.60;99.90
14908;DHT22;7545;52.092;7.006;2023-01-29T03:30:21;2.60;99.90
14908;DHT22;7545;52.092;7.006;2023-01-29T03:33:09;2.60;99.90
14908;DHT22;7545;52.092;7.006;2023-01-29T03:35:50;2.60;99.90
14908;DHT22;7545;52.092;7.006;2023-01-29T03:38:18;2.60;99.90
14908;DHT22;7545;52.092;7.006;2023-01-29T03:40:52;2.60;99.90
14908;DHT22;7545;52.092;7.006;2023-01-29T03:44:13;2.60;99.90
14908;DHT22;7545;52.092;7.006;2023-01-29T03:46:40;2.60;99.90
14908;DHT22;7545;52.092;7.006;2023-01-29T03:49:12;2.60;99.90
14908;DHT22;7545;52.092;7.006;2023-01-29T03:51:55;2.60;99.90
14908;DHT22;7545;52.092;7.006;2023-01-29T03:57:49;2.60;99.90
14908;DHT22;7545;52.092;7.006;2023-01-29T04:00:24;2.50;99.90
14908;DHT22;7545;52.092;7.006;2023-01-29T04:06:26;2.50;99.90
14908;DHT22;7545;52.092;7.006;2023-01-29T04:08:38;2.50;99.90
14908;DHT22;7545;52.092;7.006;2023-01-29T04:11:11;2.50;99.90
14908;DHT22;7545;52.092;7.006;2023-01-29T04:13:39;2.60;99.90
14908;DHT22;7545;52.092;7.006;2023-01-29T04:16:07;2.50;99.90
14908;DHT22;7545;52.092;7.006;2023-01-29T04:18:34;2.50;99.90
14908;DHT22;7545;52.092;7.006;2023-01-29T04:21:00;2.50;99.90
14908;DHT22;7545;52.092;7.006;2023-01-29T04:23:26;2.50;99.90
14908;DHT22;7545;52.092;7.006;2023-01-29T04:29:33;2.50;99.90
14908;DHT22;7545;52.092;7.006;2023-01-29T04:32:19;2.50;99.90
14908;DHT22;7545;52.092;7.006;2023-01-29T04:37:36;2.50;99.90
14908;DHT22;7545;52.092;7.006;2023-01-29T04:41:10;2.50;99.90
14908;DHT22;7545;52.092;7.006;2023-01-29T04:43:35;2.50;99.90
14908;DHT22;7545;52.092;7.006;2023-01-29T04:51:24;2.50;99.90
14908;DHT22;7545;52.092;7.006;2023-01-29T04:54:03;2.50;99.90
14908;DHT22;7545;52.092;7.006;2023-01-29T04:59:29;2.50;99.90
14908;DHT22;7545;52.092;7.006;2023-01-29T05:01:54;2.50;99.90
14908;DHT22;7545;52.092;7.006;2023-01-29T05:04:21;2.50;99.90
14908;DHT22;7545;52.092;7.006;2023-01-29T05:06:48;2.50;99.90
14908;DHT22;7545;52.092;7.006;2023-01-29T05:09:15;2.50;99.90
14908;DHT22;7545;52.092;7.006;2023-01-29T05:11:42;2.50;99.90
14908;DHT22;7545;52.092;7.006;2023-01-29T05:14:11;2.50;99.90
14908;DHT22;7545;52.092;7.006;2023-01-29T05:16:42;2.50;99.90
14908;DHT22;7545;52.092;7.006;2023-01-29T05:19:09;2.40;99.90
14908;DHT22;7545;52.092;7.006;2023-01-29T05:21:36;2.50;99.90
14908;DHT22;7545;52.092;7.006;2023-01-29T05:24:10;2.40;99.90
14908;DHT22;7545;52.092;7.006;2023-01-29T05:26:36;2.50;99.90
14908;DHT22;7545;52.092;7.006;2023-01-29T05:29:21;2.40;99.90
14908;DHT22;7545;52.092;7.006;2023-01-29T05:31:46;2.40;99.90
14908;DHT22;7545;52.092;7.006;2023-01-29T05:34:12;2.40;99.90
14908;DHT22;7545;52.092;7.006;2023-01-29T05:36:37;2.40;99.90
14908;DHT22;7545;52.092;7.006;2023-01-29T05:39:03;2.40;99.90
14908;DHT22;7545;52.092;7.006;2023-01-29T05:41:29;2.40;99.90
14908;DHT22;7545;52.092;7.006;2023-01-29T05:43:54;2.40;99.90
14908;DHT22;7545;52.092;7.006;2023-01-29T05:46:20;2.40;99.90
14908;DHT22;7545;52.092;7.006;2023-01-29T05:48:45;2.40;99.90
14908;DHT22;7545;52.092;7.006;2023-01-29T05:51:11;2.40;99.90
14908;DHT22;7545;52.092;7.006;2023-01-29T05:53:37;2.40;99.90
14908;DHT22;7545;52.092;7.006;2023-01-29T05:56:03;2.40;99.90
14908;DHT22;7545;52.092;7.006;2023-01-29T05:58:32;2.40;99.90
14908;DHT22;7545;52.092;7.006;2023-01-29T06:01:08;2.40;99.90
14908;DHT22;7545;52.092;7.006;2023-01-29T06:03:34;2.40;99.90
14908;DHT22;7545;52.092;7.006;2023-01-29T06:06:01;2.40;99.90
14908;DHT22;7545;52.092;7.006;2023-01-29T06:08:26;2.40;99.90
14908;DHT22;7545;52.092;7.006;2023-01-29T06:10:52;2.40;99.90
14908;DHT22;7545;52.092;7.006;2023-01-29T06:13:17;2.40;99.90
14908;DHT22;7545;52.092;7.006;2023-01-29T06:15:43;2.40;99.90
14908;DHT22;7545;52.092;7.006;2023-01-29T06:18:08;2.40;99.90
14908;DHT22;7545;52.092;7.006;2023-01-29T06:20:34;2.40;99.90
14908;DHT22;7545;52.092;7.006;2023-01-29T06:23:00;2.40;99.90
14908;DHT22;7545;52.092;7.006;2023-01-29T06:25:26;2.40;99.90
14908;DHT22;7545;52.092;7.006;2023-01-29T06:27:52;2.40;99.90
14908;DHT22;7545;52.092;7.006;2023-01-29T06:30:17;2.30;99.90
14908;DHT22;7545;52.092;7.006;2023-01-29T06:32:44;2.40;99.90
14908;DHT22;7545;52.092;7.006;2023-01-29T06:35:09;2.40;99.90
14908;DHT22;7545;52.092;7.006;2023-01-29T06:37:35;2.40;99.90
14908;DHT22;7545;52.092;7.006;2023-01-29T06:40:11;2.40;99.90
14908;DHT22;7545;52.092;7.006;2023-01-29T06:42:37;2.40;99.90
14908;DHT22;7545;52.092;7.006;2023-01-29T06:45:03;2.30;99.90
14908;DHT22;7545;52.092;7.006;2023-01-29T06:47:29;2.30;99.90
14908;DHT22;7545;52.092;7.006;2023-01-29T06:49:54;2.40;99.90
14908;DHT22;7545;52.092;7.006;2023-01-29T06:52:20;2.30;99.90
14908;DHT22;7545;52.092;7.006;2023-01-29T06:54:45;2.30;99.90
14908;DHT22;7545;52.092;7.006;2023-01-29T06:57:11;2.30;99.90
14908;DHT22;7545;52.092;7.006;2023-01-29T06:59:37;2.40;99.90
14908;DHT22;7545;52.092;7.006;2023-01-29T07:02:03;2.30;99.90
14908;DHT22;7545;52.092;7.006;2023-01-29T07:04:29;2.30;99.90
14908;DHT22;7545;52.092;7.006;2023-01-29T07:06:54;2.30;99.90
14908;DHT22;7545;52.092;7.006;2023-01-29T07:09:20;2.30;99.90
14908;DHT22;7545;52.092;7.006;2023-01-29T07:11:45;2.30;99.90
14908;DHT22;7545;52.092;7.006;2023-01-29T07:14:12;2.30;99.90
14908;DHT22;7545;52.092;7.006;2023-01-29T07:16:37;2.30;99.90
14908;DHT22;7545;52.092;7.006;2023-01-29T07:19:03;2.30;99.90
14908;DHT22;7545;52.092;7.006;2023-01-29T07:21:29;2.30;99.90
14908;DHT22;7545;52.092;7.006;2023-01-29T07:23:54;2.30;99.90
14908;DHT22;7545;52.092;7.006;2023-01-29T07:26:20;2.30;99.90
14908;DHT22;7545;52.092;7.006;2023-01-29T07:28:48;2.30;99.90
14908;DHT22;7545;52.092;7.006;2023-01-29T07:31:14;2.30;99.90
14908;DHT22;7545;52.092;7.006;2023-01-29T07:33:42;2.30;99.90
14908;DHT22;7545;52.092;7.006;2023-01-29T07:36:09;2.30;99.90
14908;DHT22;7545;52.092;7.006;2023-01-29T07:38:34;2.30;99.90
14908;DHT22;7545;52.092;7.006;2023-01-29T07:41:00;2.40;99.90
14908;DHT22;7545;52.092;7.006;2023-01-29T07:43:25;2.30;99.90
14908;DHT22;7545;52.092;7.006;2023-01-29T07:45:51;2.30;99.90
14908;DHT22;7545;52.092;7.006;2023-01-29T07:48:17;2.30;99.90
14908;DHT22;7545;52.092;7.006;2023-01-29T07:50:42;2.30;99.90
14908;DHT22;7545;52.092;7.006;2023-01-29T07:53:15;2.40;99.90
14908;DHT22;7545;52.092;7.006;2023-01-29T07:55:44;2.40;99.90
14908;DHT22;7545;52.092;7.006;2023-01-29T07:58:09;2.40;99.90
14908;DHT22;7545;52.092;7.006;2023-01-29T08:00:35;2.40;99.90
14908;DHT22;7545;52.092;7.006;2023-01-29T08:03:05;2.40;99.90
14908;DHT22;7545;52.092;7.006;2023-01-29T08:05:32;2.40;99.90
14908;DHT22;7545;52.092;7.006;2023-01-29T08:07:58;2.40;99.90
14908;DHT22;7545;52.092;7.006;2023-01-29T08:10:25;2.40;99.90
14908;DHT22;7545;52.092;7.006;2023-01-29T08:12:58;2.40;99.90
14908;DHT22;7545;52.092;7.006;2023-01-29T08:15:24;2.40;99.90
14908;DHT22;7545;52.092;7.006;2023-01-29T08:17:51;2.40;99.90
14908;DHT22;7545;52.092;7.006;2023-01-29T08:20:17;2.40;99.90
14908;DHT22;7545;52.092;7.006;2023-01-29T08:22:44;2.40;99.90
14908;DHT22;7545;52.092;7.006;2023-01-29T08:25:09;2.40;99.90
14908;DHT22;7545;52.092;7.006;2023-01-29T08:27:36;2.40;99.90
14908;DHT22;7545;52.092;7.006;2023-01-29T08:30:03;2.50;99.90
14908;DHT22;7545;52.092;7.006;2023-01-29T08:32:28;2.50;99.90
14908;DHT22;7545;52.092;7.006;2023-01-29T08:34:54;2.50;99.90
14908;DHT22;7545;52.092;7.006;2023-01-29T08:37:19;2.50;99.90
14908;DHT22;7545;52.092;7.006;2023-01-29T08:39:45;2.50;99.90
14908;DHT22;7545;52.092;7.006;2023-01-29T08:42:11;2.50;99.90
14908;DHT22;7545;52.092;7.006;2023-01-29T08:44:36;2.60;99.90
14908;DHT22;7545;52.092;7.006;2023-01-29T08:47:02;2.60;99.90
14908;DHT22;7545;52.092;7.006;2023-01-29T08:49:27;2.60;99.90
14908;DHT22;7545;52.092;7.006;2023-01-29T08:51:53;2.50;99.90
14908;DHT22;7545;52.092;7.006;2023-01-29T08:54:21;2.60;99.90
14908;DHT22;7545;52.092;7.006;2023-01-29T08:56:46;2.60;99.90
14908;DHT22;7545;52.092;7.006;2023-01-29T08:59:12;2.60;99.90
14908;DHT22;7545;52.092;7.006;2023-01-29T09:01:38;2.70;99.90
14908;DHT22;7545;52.092;7.006;2023-01-29T09:04:03;2.70;99.90
14908;DHT22;7545;52.092;7.006;2023-01-29T09:06:29;2.70;99.90
14908;DHT22;7545;52.092;7.006;2023-01-29T09:08:55;2.70;99.90
14908;DHT22;7545;52.092;7.006;2023-01-29T09:11:20;2.70;99.90
14908;DHT22;7545;52.092;7.006;2023-01-29T09:13:46;2.70;99.90
14908;DHT22;7545;52.092;7.006;2023-01-29T09:16:12;2.70;99.90
14908;DHT22;7545;52.092;7.006;2023-01-29T09:18:37;2.70;99.90
14908;DHT22;7545;52.092;7.006;2023-01-29T09:21:03;2.70;99.90
14908;DHT22;7545;52.092;7.006;2023-01-29T09:23:29;2.70;99.90
14908;DHT22;7545;52.092;7.006;2023-01-29T09:25:55;2.70;99.90
14908;DHT22;7545;52.092;7.006;2023-01-29T09:28:21;2.70;99.90
14908;DHT22;7545;52.092;7.006;2023-01-29T09:30:46;2.70;99.90
14908;DHT22;7545;52.092;7.006;2023-01-29T09:33:12;2.70;99.90
14908;DHT22;7545;52.092;7.006;2023-01-29T09:35:40;2.70;99.90
14908;DHT22;7545;52.092;7.006;2023-01-29T09:38:06;2.70;99.90
14908;DHT22;7545;52.092;7.006;2023-01-29T09:40:54;2.70;99.90
14908;DHT22;7545;52.092;7.006;2023-01-29T09:43:23;2.80;99.90
14908;DHT22;7545;52.092;7.006;2023-01-29T09:45:54;2.80;99.90
14908;DHT22;7545;52.092;7.006;2023-01-29T09:48:25;2.80;99.90
14908;DHT22;7545;52.092;7.006;2023-01-29T09:50:54;2.80;99.90
14908;DHT22;7545;52.092;7.006;2023-01-29T09:53:39;2.80;99.90
14908;DHT22;7545;52.092;7.006;2023-01-29T09:56:13;2.80;99.90
14908;DHT22;7545;52.092;7.006;2023-01-29T09:58:42;2.90;99.90
14908;DHT22;7545;52.092;7.006;2023-01-29T10:01:16;2.80;99.90
14908;DHT22;7545;52.092;7.006;2023-01-29T10:06:42;2.90;99.90
14908;DHT22;7545;52.092;7.006;2023-01-29T10:14:49;2.90;99.90
14908;DHT22;7545;52.092;7.006;2023-01-29T10:23:30;3.00;99.90
14908;DHT22;7545;52.092;7.006;2023-01-29T10:25:57;3.10;99.90
14908;DHT22;7545;52.092;7.006;2023-01-29T10:28:44;3.00;99.90
14908;DHT22;7545;52.092;7.006;2023-01-29T10:31:21;3.00;99.90
14908;DHT22;7545;52.092;7.006;2023-01-29T10:33:59;3.00;99.90
14908;DHT22;7545;52.092;7.006;2023-01-29T10:38:56;3.10;99.90
14908;DHT22;7545;52.092;7.006;2023-01-29T10:44:30;3.10;99.90
14908;DHT22;7545;52.092;7.006;2023-01-29T10:47:25;3.20;99.90
14908;DHT22;7545;52.092;7.006;2023-01-29T10:58:26;3.20;99.90
14908;DHT22;7545;52.092;7.006;2023-01-29T11:00:54;3.20;99.90
14908;DHT22;7545;52.092;7.006;2023-01-29T11:03:25;3.20;99.90
14908;DHT22;7545;52.092;7.006;2023-01-29T11:06:08;3.30;99.90
14908;DHT22;7545;52.092;7.006;2023-01-29T11:08:51;3.30;99.90
14908;DHT22;7545;52.092;7.006;2023-01-29T11:11:20;3.30;99.90
14908;DHT22;7545;52.092;7.006;2023-01-29T11:13:59;3.30;99.90
14908;DHT22;7545;52.092;7.006;2023-01-29T11:16:29;3.30;99.90
14908;DHT22;7545;52.092;7.006;2023-01-29T11:18:57;3.30;99.90
14908;DHT22;7545;52.092;7.006;2023-01-29T11:21:25;3.30;99.90
14908;DHT22;7545;52.092;7.006;2023-01-29T11:24:11;3.30;99.90
14908;DHT22;7545;52.092;7.006;2023-01-29T11:26:41;3.30;99.90
14908;DHT22;7545;52.092;7.006;2023-01-29T11:31:56;3.40;99.90
14908;DHT22;7545;52.092;7.006;2023-01-29T11:34:23;3.40;99.90
14908;DHT22;7545;52.092;7.006;2023-01-29T11:36:58;3.40;99.90
14908;DHT22;7545;52.092;7.006;2023-01-29T11:39:25;3.40;99.90
14908;DHT22;7545;52.092;7.006;2023-01-29T11:41:53;3.40;99.90
14908;DHT22;7545;52.092;7.006;2023-01-29T11:44:30;3.40;99.90
14908;DHT22;7545;52.092;7.006;2023-01-29T11:47:07;3.40;99.90
14908;DHT22;7545;52.092;7.006;2023-01-29T11:49:35;3.40;99.90
14908;DHT22;7545;52.092;7.006;2023-01-29T11:52:04;3.40;99.90
14908;DHT22;7545;52.092;7.006;2023-01-29T11:54:36;3.50;99.90
14908;DHT22;7545;52.092;7.006;2023-01-29T11:57:03;3.50;99.90
14908;DHT22;7545;52.092;7.006;2023-01-29T11:59:43;3.50;99.90
14908;DHT22;7545;52.092;7.006;2023-01-29T12:04:47;3.50;99.90
14908;DHT22;7545;52.092;7.006;2023-01-29T12:07:15;3.50;99.90
14908;DHT22;7545;52.092;7.006;2023-01-29T12:09:52;3.50;99.90
14908;DHT22;7545;52.092;7.006;2023-01-29T12:12:30;3.50;99.90
14908;DHT22;7545;52.092;7.006;2023-01-29T12:15:05;3.60;99.90
14908;DHT22;7545;52.092;7.006;2023-01-29T12:17:32;3.60;99.90
14908;DHT22;7545;52.092;7.006;2023-01-29T12:20:13;3.60;99.90
14908;DHT22;7545;52.092;7.006;2023-01-29T12:22:46;3.60;99.90
14908;DHT22;7545;52.092;7.006;2023-01-29T12:25:43;3.60;99.90
14908;DHT22;7545;52.092;7.006;2023-01-29T12:28:30;3.60;99.90
14908;DHT22;7545;52.092;7.006;2023-01-29T12:31:14;3.60;99.90
14908;DHT22;7545;52.092;7.006;2023-01-29T12:36:23;3.60;99.90
14908;DHT22;7545;52.092;7.006;2023-01-29T12:38:50;3.60;99.90
14908;DHT22;7545;52.092;7.006;2023-01-29T12:44:06;3.60;99.90
14908;DHT22;7545;52.092;7.006;2023-01-29T12:47:02;3.60;99.90
14908;DHT22;7545;52.092;7.006;2023-01-29T12:49:31;3.60;99.90
14908;DHT22;7545;52.092;7.006;2023-01-29T12:55:23;3.60;99.90
14908;DHT22;7545;52.092;7.006;2023-01-29T12:58:01;3.60;99.90
14908;DHT22;7545;52.092;7.006;2023-01-29T13:00:32;3.60;99.90
14908;DHT22;7545;52.092;7.006;2023-01-29T13:05:46;3.60;99.90
14908;DHT22;7545;52.092;7.006;2023-01-29T13:10:50;3.60;99.90
14908;DHT22;7545;52.092;7.006;2023-01-29T13:13:44;3.60;99.90
14908;DHT22;7545;52.092;7.006;2023-01-29T13:16:18;3.60;99.90
14908;DHT22;7545;52.092;7.006;2023-01-29T13:18:54;3.50;99.90
14908;DHT22;7545;52.092;7.006;2023-01-29T13:21:28;3.60;99.90
14908;DHT22;7545;52.092;7.006;2023-01-29T13:24:14;3.60;99.90
14908;DHT22;7545;52.092;7.006;2023-01-29T13:26:46;3.50;99.90
14908;DHT22;7545;52.092;7.006;2023-01-29T13:29:33;3.60;99.90
14908;DHT22;7545;52.092;7.006;2023-01-29T13:32:00;3.60;99.90
14908;DHT22;7545;52.092;7.006;2023-01-29T13:34:35;3.60;99.90
14908;DHT22;7545;52.092;7.006;2023-01-29T13:39:50;3.60;99.90
14908;DHT22;7545;52.092;7.006;2023-01-29T13:42:32;3.60;99.90
14908;DHT22;7545;52.092;7.006;2023-01-29T13:45:02;3.60;99.90
14908;DHT22;7545;52.092;7.006;2023-01-29T13:47:29;3.60;99.90
14908;DHT22;7545;52.092;7.006;2023-01-29T13:49:56;3.60;99.90
14908;DHT22;7545;52.092;7.006;2023-01-29T13:52:54;3.60;99.90
14908;DHT22;7545;52.092;7.006;2023-01-29T13:55:22;3.60;99.90
14908;DHT22;7545;52.092;7.006;2023-01-29T13:57:55;3.60;99.90
14908;DHT22;7545;52.092;7.006;2023-01-29T14:13:41;3.70;99.90
14908;DHT22;7545;52.092;7.006;2023-01-29T14:19:14;3.70;99.90
14908;DHT22;7545;52.092;7.006;2023-01-29T14:21:48;3.60;99.90
14908;DHT22;7545;52.092;7.006;2023-01-29T14:24:21;3.60;99.90
14908;DHT22;7545;52.092;7.006;2023-01-29T14:26:53;3.60;99.90
14908;DHT22;7545;52.092;7.006;2023-01-29T14:29:25;3.60;99.90
14908;DHT22;7545;52.092;7.006;2023-01-29T14:32:19;3.60;99.90
14908;DHT22;7545;52.092;7.006;2023-01-29T14:34:49;3.60;99.90
14908;DHT22;7545;52.092;7.006;2023-01-29T14:39:48;3.60;99.90
14908;DHT22;7545;52.092;7.006;2023-01-29T14:42:28;3.60;99.90
14908;DHT22;7545;52.092;7.006;2023-01-29T14:45:05;3.60;99.90
14908;DHT22;7545;52.092;7.006;2023-01-29T14:50:02;3.60;99.90
14908;DHT22;7545;52.092;7.006;2023-01-29T14:52:48;3.60;99.90
14908;DHT22;7545;52.092;7.006;2023-01-29T14:55:37;3.60;99.90
14908;DHT22;7545;52.092;7.006;2023-01-29T14:58:04;3.60;99.90
14908;DHT22;7545;52.092;7.006;2023-01-29T15:00:35;3.60;99.90
14908;DHT22;7545;52.092;7.006;2023-01-29T15:03:04;3.60;99.90
14908;DHT22;7545;52.092;7.006;2023-01-29T15:05:37;3.60;99.90
14908;DHT22;7545;52.092;7.006;2023-01-29T15:08:16;3.60;99.90
14908;DHT22;7545;52.092;7.006;2023-01-29T15:10:49;3.60;99.90
14908;DHT22;7545;52.092;7.006;2023-01-29T15:13:47;3.60;99.90
14908;DHT22;7545;52.092;7.006;2023-01-29T15:16:21;3.60;99.90
14908;DHT22;7545;52.092;7.006;2023-01-29T15:18:51;3.60;99.90
14908;DHT22;7545;52.092;7.006;2023-01-29T15:21:19;3.60;99.90
14908;DHT22;7545;52.092;7.006;2023-01-29T15:23:46;3.60;99.90
14908;DHT22;7545;52.092;7.006;2023-01-29T15:26:21;3.60;99.90
14908;DHT22;7545;52.092;7.006;2023-01-29T15:28:58;3.60;99.90
14908;DHT22;7545;52.092;7.006;2023-01-29T15:31:25;3.60;99.90
14908;DHT22;7545;52.092;7.006;2023-01-29T15:33:53;3.70;99.90
14908;DHT22;7545;52.092;7.006;2023-01-29T15:36:22;3.70;99.90
14908;DHT22;7545;52.092;7.006;2023-01-29T15:38:48;3.60;99.90
14908;DHT22;7545;52.092;7.006;2023-01-29T15:41:28;3.60;99.90
14908;DHT22;7545;52.092;7.006;2023-01-29T15:43:57;3.60;99.90
14908;DHT22;7545;52.092;7.006;2023-01-29T15:46:29;3.60;99.90
14908;DHT22;7545;52.092;7.006;2023-01-29T15:49:00;3.60;99.90
14908;DHT22;7545;52.092;7.006;2023-01-29T15:51:27;3.60;99.90
14908;DHT22;7545;52.092;7.006;2023-01-29T15:54:01;3.60;99.90
14908;DHT22;7545;52.092;7.006;2023-01-29T15:56:43;3.60;99.90
14908;DHT22;7545;52.092;7.006;2023-01-29T15:59:19;3.60;99.90
14908;DHT22;7545;52.092;7.006;2023-01-29T16:01:46;3.60;99.90
14908;DHT22;7545;52.092;7.006;2023-01-29T16:04:17;3.60;99.90
14908;DHT22;7545;52.092;7.006;2023-01-29T16:06:45;3.50;99.90
14908;DHT22;7545;52.092;7.006;2023-01-29T16:09:19;3.50;99.90
14908;DHT22;7545;52.092;7.006;2023-01-29T16:11:46;3.50;99.90
14908;DHT22;7545;52.092;7.006;2023-01-29T16:14:13;3.50;99.90
14908;DHT22;7545;52.092;7.006;2023-01-29T16:16:41;3.50;99.90
14908;DHT22;7545;52.092;7.006;2023-01-29T16:19:28;3.50;99.90
14908;DHT22;7545;52.092;7.006;2023-01-29T16:24:23;3.50;99.90
14908;DHT22;7545;52.092;7.006;2023-01-29T16:26:51;3.50;99.90
14908;DHT22;7545;52.092;7.006;2023-01-29T16:29:20;3.60;99.90
14908;DHT22;7545;52.092;7.006;2023-01-29T16:31:49;3.50;99.90
14908;DHT22;7545;52.092;7.006;2023-01-29T16:34:25;3.50;99.90
14908;DHT22;7545;52.092;7.006;2023-01-29T16:36:54;3.50;99.90
14908;DHT22;7545;52.092;7.006;2023-01-29T16:39:23;3.50;99.90
14908;DHT22;7545;52.092;7.006;2023-01-29T16:44:39;3.50;99.90
14908;DHT22;7545;52.092;7.006;2023-01-29T16:47:32;3.50;99.90
14908;DHT22;7545;52.092;7.006;2023-01-29T16:52:36;3.50;99.90
14908;DHT22;7545;52.092;7.006;2023-01-29T16:57:38;3.60;99.90
14908;DHT22;7545;52.092;7.006;2023-01-29T17:00:06;3.50;99.90
14908;DHT22;7545;52.092;7.006;2023-01-29T17:02:38;3.50;99.90
14908;DHT22;7545;52.092;7.006;2023-01-29T17:05:07;3.50;99.90
14908;DHT22;7545;52.092;7.006;2023-01-29T17:07:35;3.60;99.90
14908;DHT22;7545;52.092;7.006;2023-01-29T17:10:04;3.60;99.90
14908;DHT22;7545;52.092;7.006;2023-01-29T17:12:31;3.60;99.90
14908;DHT22;7545;52.092;7.006;2023-01-29T17:15:26;3.60;99.90
14908;DHT22;7545;52.092;7.006;2023-01-29T17:17:50;3.60;99.90
14908;DHT22;7545;52.092;7.006;2023-01-29T17:20:16;3.60;99.90
14908;DHT22;7545;52.092;7.006;2023-01-29T17:22:42;3.60;99.90
14908;DHT22;7545;52.092;7.006;2023-01-29T17:25:12;3.60;99.90
14908;DHT22;7545;52.092;7.006;2023-01-29T17:27:40;3.60;99.90
14908;DHT22;7545;52.092;7.006;2023-01-29T17:30:11;3.60;99.90
14908;DHT22;7545;52.092;7.006;2023-01-29T17:32:38;3.60;99.90
14908;DHT22;7545;52.092;7.006;2023-01-29T17:35:03;3.60;99.90
14908;DHT22;7545;52.092;7.006;2023-01-29T17:37:31;3.60;99.90
14908;DHT22;7545;52.092;7.006;2023-01-29T17:39:56;3.60;99.90
14908;DHT22;7545;52.092;7.006;2023-01-29T17:42:23;3.60;99.90
14908;DHT22;7545;52.092;7.006;2023-01-29T17:44:49;3.70;99.90
14908;DHT22;7545;52.092;7.006;2023-01-29T17:47:16;3.70;99.90
14908;DHT22;7545;52.092;7.006;2023-01-29T17:49:42;3.70;99.90
14908;DHT22;7545;52.092;7.006;2023-01-29T17:52:08;3.60;99.90
14908;DHT22;7545;52.092;7.006;2023-01-29T17:54:34;3.60;99.90
14908;DHT22;7545;52.092;7.006;2023-01-29T17:57:00;3.60;99.90
14908;DHT22;7545;52.092;7.006;2023-01-29T17:59:29;3.60;99.90
14908;DHT22;7545;52.092;7.006;2023-01-29T18:01:55;3.60;99.90
14908;DHT22;7545;52.092;7.006;2023-01-29T18:04:21;3.60;99.90
14908;DHT22;7545;52.092;7.006;2023-01-29T18:06:48;3.60;99.90
14908;DHT22;7545;52.092;7.006;2023-01-29T18:09:17;3.60;99.90
14908;DHT22;7545;52.092;7.006;2023-01-29T18:11:45;3.60;99.90
14908;DHT22;7545;52.092;7.006;2023-01-29T18:14:11;3.50;99.90
14908;DHT22;7545;52.092;7.006;2023-01-29T18:16:41;3.50;99.90
14908;DHT22;7545;52.092;7.006;2023-01-29T18:19:21;3.50;99.90
14908;DHT22;7545;52.092;7.006;2023-01-29T18:21:47;3.50;99.90
14908;DHT22;7545;52.092;7.006;2023-01-29T18:24:13;3.50;99.90
14908;DHT22;7545;52.092;7.006;2023-01-29T18:26:39;3.50;99.90
14908;DHT22;7545;52.092;7.006;2023-01-29T18:29:05;3.50;99.90
14908;DHT22;7545;52.092;7.006;2023-01-29T18:31:30;3.50;99.90
14908;DHT22;7545;52.092;7.006;2023-01-29T18:33:56;3.50;99.90